Time;durP1;ratioP1;P1;durP2;ratioP2;P2;SDS_P1;SDS_P2;PMS_P1;PMS_P2;Temp;Humidity;BMP_temperature;BMP_pressure;BME280_temperature;BME280_humidity;BME280_pressure;Samples;Min_cycle;Max_cycle;Signal;HPM_P1;HPM_P2
2020/12/11 00:02:05;;;;;;;59.63;35.33;;;;;;;0.96;86.95;100881.57;1783798;80;21041;-53
2020/12/11 00:04:33;;;;;;;60.28;36.73;;;;;;;0.99;86.87;100888.46;1784042;79;21030;-53
2020/12/11 00:07:01;;;;;;;58.20;35.83;;;;;;;1.00;86.77;100889.61;1783846;80;21041;-53
2020/12/11 00:09:28;;;;;;;59.53;31.62;;;;;;;1.01;86.68;100879.09;1784048;80;21198;-53
2020/12/11 00:11:56;;;;;;;62.90;38.90;;;;;;;1.01;86.67;100879.09;1783929;80;21025;-52
2020/12/11 00:14:24;;;;;;;65.22;34.65;;;;;;;1.02;86.68;100883.47;1783965;80;21006;-53
2020/12/11 00:16:52;;;;;;;57.33;36.15;;;;;;;1.06;86.41;100885.28;1784008;80;21033;-53
2020/12/11 00:19:20;;;;;;;64.00;36.65;;;;;;;1.02;86.32;100874.00;1784061;80;21088;-52
2020/12/11 00:21:51;;;;;;;66.75;37.45;;;;;;;1.01;86.29;100876.38;1784026;80;22364;-52
2020/12/11 00:24:19;;;;;;;64.58;36.40;;;;;;;1.02;86.30;100875.88;1783782;80;20990;-52
2020/12/11 00:26:47;;;;;;;50.65;29.10;;;;;;;1.02;86.28;100871.30;1784032;80;21572;-52
2020/12/11 00:29:14;;;;;;;61.00;37.73;;;;;;;1.06;86.24;100870.89;1783861;80;20938;-53
2020/12/11 00:31:42;;;;;;;49.88;31.35;;;;;;;1.07;86.15;100882.05;1783970;79;21037;-53
2020/12/11 00:34:09;;;;;;;58.10;34.73;;;;;;;1.09;86.19;100877.28;1784099;80;22270;-52
2020/12/11 00:36:40;;;;;;;53.13;34.33;;;;;;;1.11;86.02;100872.50;1783789;80;21033;-53
2020/12/11 00:39:07;;;;;;;48.23;31.25;;;;;;;1.12;85.96;100866.06;1784095;80;21019;-53
2020/12/11 00:41:40;;;;;;;63.20;36.17;;;;;;;1.14;85.91;100857.21;1783897;80;21049;-53
2020/12/11 00:44:07;;;;;;;54.48;33.30;;;;;;;1.15;85.76;100867.01;1783879;79;20974;-53
2020/12/11 00:46:35;;;;;;;53.30;32.05;;;;;;;1.14;85.68;100860.73;1783875;79;21182;-53
2020/12/11 00:49:04;;;;;;;53.38;34.18;;;;;;;1.12;85.57;100854.70;1783943;80;21057;-52
2020/12/11 00:51:33;;;;;;;50.43;30.30;;;;;;;1.14;85.65;100859.91;1784046;80;21584;-53
2020/12/11 00:54:02;;;;;;;49.05;30.52;;;;;;;1.18;85.60;100866.59;1783841;80;21029;-53
2020/12/11 00:56:30;;;;;;;47.38;32.40;;;;;;;1.19;85.43;100862.87;1783739;80;21057;-53
2020/12/11 00:58:57;;;;;;;47.78;31.42;;;;;;;1.18;85.34;100865.25;1784140;80;22253;-53
2020/12/11 01:01:25;;;;;;;43.70;28.45;;;;;;;1.15;85.29;100862.42;1783900;80;20978;-53
2020/12/11 01:03:52;;;;;;;51.60;32.75;;;;;;;1.15;85.33;100862.95;1783965;80;21025;-53
2020/12/11 01:06:20;;;;;;;42.05;30.65;;;;;;;1.14;85.23;100865.33;1783842;80;21045;-53
2020/12/11 01:08:47;;;;;;;51.60;33.13;;;;;;;1.14;85.21;100862.62;1783882;80;20968;-53
2020/12/11 01:11:15;;;;;;;51.50;34.18;;;;;;;1.12;85.18;100862.00;1783838;80;21619;-53
2020/12/11 01:13:42;;;;;;;48.10;30.97;;;;;;;1.11;85.20;100856.27;1792670;79;21282;-53
2020/12/11 01:16:09;;;;;;;50.20;32.75;;;;;;;1.13;85.23;100854.18;1779230;80;21563;-53
2020/12/11 01:18:36;;;;;;;54.05;34.65;;;;;;;1.12;85.17;100857.41;1779441;80;21066;-53
2020/12/11 01:21:04;;;;;;;53.23;33.90;;;;;;;1.11;85.18;100859.79;1779485;80;20986;-53
2020/12/11 01:23:31;;;;;;;46.45;30.68;;;;;;;1.10;85.26;100855.44;1779386;80;21399;-53
2020/12/11 01:25:59;;;;;;;57.20;35.52;;;;;;;1.12;85.29;100861.47;1779454;80;21006;-53
2020/12/11 01:28:26;;;;;;;46.70;31.35;;;;;;;1.12;85.23;100862.00;1779282;80;21037;-53
2020/12/11 01:30:53;;;;;;;57.25;35.73;;;;;;;1.13;85.24;100860.44;1779362;80;21048;-53
2020/12/11 01:33:21;;;;;;;49.98;34.83;;;;;;;1.14;85.22;100849.09;1779535;80;21018;-53
2020/12/11 01:35:49;;;;;;;46.28;31.07;;;;;;;1.15;85.21;100849.42;1779533;80;21201;-53
2020/12/11 01:38:17;;;;;;;51.88;29.48;;;;;;;1.15;85.20;100852.12;1779257;80;21002;-53
2020/12/11 01:40:44;;;;;;;44.50;29.35;;;;;;;1.13;85.34;100844.70;1779651;80;21025;-53
2020/12/11 01:43:13;;;;;;;43.60;28.20;;;;;;;1.14;85.36;100837.73;1779323;79;21045;-53
2020/12/11 01:45:40;;;;;;;49.42;30.25;;;;;;;1.19;85.29;100842.57;1760973;81;21048;-53
2020/12/11 01:48:08;;;;;;;39.27;25.80;;;;;;;1.18;85.22;100844.95;1779514;80;20992;-53
2020/12/11 01:50:35;;;;;;;45.12;30.35;;;;;;;1.20;85.27;100834.75;1760759;81;21055;-53
2020/12/11 01:53:04;;;;;;;49.50;30.82;;;;;;;1.20;85.08;100831.55;1779541;80;21473;-53
2020/12/11 01:55:32;;;;;;;51.60;27.80;;;;;;;1.20;84.91;100828.84;1760685;81;21024;-53
2020/12/11 01:58:01;;;;;;;39.08;26.73;;;;;;;1.23;84.99;100836.22;1779501;80;21049;-53
2020/12/11 02:00:28;;;;;;;40.70;25.40;;;;;;;1.22;84.81;100833.22;1760839;81;22198;-53
2020/12/11 02:03:10;;;;;;;40.55;25.23;;;;;;;1.19;84.72;100827.69;1779430;80;21022;-53
2020/12/11 02:05:38;;;;;;;36.20;23.40;;;;;;;1.18;84.80;100817.89;1761039;81;21685;-53
2020/12/11 02:08:06;;;;;;;35.65;21.73;;;;;;;1.20;84.84;100822.57;1779563;80;21013;-53
2020/12/11 02:10:33;;;;;;;34.48;23.57;;;;;;;1.22;84.80;100825.92;1761021;81;20973;-53
2020/12/11 02:13:07;;;;;;;35.45;22.13;;;;;;;1.23;84.74;100820.84;1778882;80;22134;-52
2020/12/11 02:15:35;;;;;;;37.30;21.73;;;;;;;1.26;84.64;100827.70;1776539;80;21630;-53
2020/12/11 02:18:03;;;;;;;37.73;23.20;;;;;;;1.24;84.52;100824.38;1776740;80;20986;-53
2020/12/11 02:20:30;;;;;;;34.65;21.50;;;;;;;1.21;84.48;100821.55;1776621;80;21046;-53
2020/12/11 02:22:58;;;;;;;35.90;21.85;;;;;;;1.20;84.51;100821.22;1776749;80;21029;-53
2020/12/11 02:25:25;;;;;;;32.08;22.55;;;;;;;1.23;84.45;100827.61;1776692;80;21944;-53
2020/12/11 02:27:53;;;;;;;30.30;19.27;;;;;;;1.24;84.31;100824.38;1776536;80;21632;-53
2020/12/11 02:30:20;;;;;;;29.52;19.62;;;;;;;1.20;84.12;100821.22;1776632;80;21041;-53
2020/12/11 02:32:48;;;;;;;37.00;21.82;;;;;;;1.17;84.09;100821.62;1776634;80;21014;-53
2020/12/11 02:35:15;;;;;;;37.63;22.55;;;;;;;1.14;84.03;100827.45;1776636;80;21187;-53
2020/12/11 02:37:43;;;;;;;35.28;23.15;;;;;;;1.11;84.01;100826.50;1776616;80;21432;-53
2020/12/11 02:40:10;;;;;;;37.45;22.80;;;;;;;1.06;83.94;100830.31;1776498;80;21021;-53
2020/12/11 02:42:37;;;;;;;39.08;21.37;;;;;;;1.02;83.98;100832.07;1776506;80;21045;-53
2020/12/11 02:45:06;;;;;;;36.88;23.77;;;;;;;0.99;84.25;100839.23;1776669;80;21600;-53
2020/12/11 02:47:33;;;;;;;35.35;22.25;;;;;;;0.99;84.40;100842.47;1776518;80;21136;-53
2020/12/11 02:50:01;;;;;;;34.53;23.15;;;;;;;1.00;84.35;100842.77;1776831;80;21188;-53
2020/12/11 02:52:29;;;;;;;41.70;23.02;;;;;;;0.98;84.29;100839.44;1776514;80;20974;-53
2020/12/11 02:54:58;;;;;;;40.48;22.40;;;;;;;0.98;84.40;100847.03;1776707;80;21014;-53
2020/12/11 02:57:25;;;;;;;33.75;22.73;;;;;;;0.98;84.42;100843.50;1776651;80;21050;-53
2020/12/11 02:59:53;;;;;;;43.13;27.40;;;;;;;0.98;84.38;100838.91;1776977;80;20958;-53
2020/12/11 03:02:20;;;;;;;37.83;26.12;;;;;;;0.98;84.28;100845.67;1776830;80;21205;-53
2020/12/11 03:04:48;;;;;;;40.75;25.50;;;;;;;0.99;84.26;100845.18;1776750;80;21053;-53
2020/12/11 03:07:16;;;;;;;35.35;25.02;;;;;;;1.00;84.21;100849.03;1776671;80;21044;-53
2020/12/11 03:09:43;;;;;;;40.25;26.52;;;;;;;1.02;84.25;100844.25;1776899;80;20990;-53
2020/12/11 03:12:16;;;;;;;45.55;29.12;;;;;;;1.06;84.07;100847.41;1776682;80;21591;-53
2020/12/11 03:14:42;;;;;;;41.02;26.45;;;;;;;1.07;83.86;100844.16;1781883;80;21202;-53
2020/12/11 03:17:09;;;;;;;41.88;27.15;;;;;;;1.03;83.94;100843.22;1783907;80;20982;-53
2020/12/11 03:19:37;;;;;;;39.78;27.73;;;;;;;1.03;83.64;100840.52;1784053;80;21041;-53
2020/12/11 03:22:04;;;;;;;41.33;27.17;;;;;;;1.00;83.60;100834.16;1783796;80;21176;-53
2020/12/11 03:24:31;;;;;;;44.35;28.55;;;;;;;1.00;83.66;100838.22;1784030;80;20981;-53
2020/12/11 03:26:59;;;;;;;41.65;26.85;;;;;;;1.03;83.67;100834.28;1784079;80;22719;-53
2020/12/11 03:29:26;;;;;;;39.23;27.70;;;;;;;1.03;83.63;100836.98;1783596;80;21005;-53
2020/12/11 03:31:56;;;;;;;39.90;26.25;;;;;;;1.02;83.59;100831.25;1783875;80;21025;-53
2020/12/11 03:34:23;;;;;;;44.85;24.92;;;;;;;1.02;83.46;100835.30;1783779;80;21094;-53
2020/12/11 03:36:51;;;;;;;41.23;24.25;;;;;;;1.01;83.52;100835.80;1783952;80;21536;-53
2020/12/11 03:39:19;;;;;;;34.48;21.87;;;;;;;0.97;83.39;100833.70;1783901;80;21377;-53
2020/12/11 03:41:52;;;;;;;34.60;22.75;;;;;;;0.99;83.52;100839.23;1783977;80;21005;-53
2020/12/11 03:44:20;;;;;;;34.53;23.20;;;;;;;1.01;83.64;100839.03;1783945;79;20990;-53
2020/12/11 03:46:49;;;;;;;33.67;22.10;;;;;;;1.03;83.47;100831.58;1784001;80;21076;-53
2020/12/11 03:49:17;;;;;;;34.25;20.97;;;;;;;1.07;83.59;100838.75;1783908;80;21018;-53
2020/12/11 03:51:44;;;;;;;37.78;19.95;;;;;;;1.07;83.27;100845.52;1783932;80;21256;-53
2020/12/11 03:54:12;;;;;;;33.55;19.92;;;;;;;1.03;83.19;100837.80;1783921;80;21001;-53
2020/12/11 03:56:39;;;;;;;35.68;20.40;;;;;;;1.03;83.31;100841.87;1783842;80;20997;-53
2020/12/11 03:59:06;;;;;;;32.67;18.82;;;;;;;1.03;83.05;100845.92;1784021;80;21005;-53
2020/12/11 04:01:34;;;;;;;31.50;18.75;;;;;;;0.97;83.03;100845.88;1783970;80;20994;-53
2020/12/11 04:04:02;;;;;;;31.30;16.97;;;;;;;0.93;83.12;100849.52;1784044;80;21186;-53
2020/12/11 04:06:31;;;;;;;28.30;18.17;;;;;;;0.90;83.13;100853.98;1783710;80;21933;-53
2020/12/11 04:08:59;;;;;;;27.82;19.82;;;;;;;0.88;83.20;100848.44;1783976;80;21001;-53
2020/12/11 04:11:27;;;;;;;39.18;21.00;;;;;;;0.87;83.25;100854.34;1783856;80;21576;-53
2020/12/11 04:13:54;;;;;;;32.45;18.90;;;;;;;0.86;83.23;100852.17;1783859;80;21041;-53
2020/12/11 04:16:21;;;;;;;28.60;17.82;;;;;;;0.88;83.22;100849.80;1783940;80;21193;-53
2020/12/11 04:18:49;;;;;;;35.08;20.70;;;;;;;0.85;83.23;100849.67;1783920;80;21018;-53
2020/12/11 04:21:17;;;;;;;29.40;20.97;;;;;;;0.86;83.26;100846.77;1784026;80;21013;-53
2020/12/11 04:23:44;;;;;;;35.45;20.55;;;;;;;0.88;83.24;100849.80;1783905;80;21013;-53
2020/12/11 04:26:12;;;;;;;33.45;19.48;;;;;;;0.85;83.12;100849.67;1783848;80;20990;-53
2020/12/11 04:28:39;;;;;;;28.45;18.52;;;;;;;0.83;83.10;100853.10;1784077;80;22099;-53
2020/12/11 04:31:06;;;;;;;36.13;22.45;;;;;;;0.80;82.98;100846.71;1783689;80;21041;-53
2020/12/11 04:33:34;;;;;;;34.92;20.72;;;;;;;0.78;83.05;100849.61;1783975;80;20982;-53
2020/12/11 04:36:02;;;;;;;30.02;20.50;;;;;;;0.79;83.01;100854.00;1783893;80;22080;-53
2020/12/11 04:38:29;;;;;;;28.05;19.32;;;;;;;0.75;82.82;100853.25;1783686;80;21045;-53
2020/12/11 04:41:00;;;;;;;33.55;19.75;;;;;;;0.70;82.67;100855.20;1783889;80;21372;-53
2020/12/11 04:43:29;;;;;;;36.00;20.23;;;;;;;0.66;82.80;100859.33;1783754;79;21037;-53
2020/12/11 04:45:56;;;;;;;37.08;20.55;;;;;;;0.63;82.88;100862.41;1783664;80;21001;-53
2020/12/11 04:48:24;;;;;;;28.77;17.02;;;;;;;0.64;82.88;100855.47;1783836;80;20969;-53
2020/12/11 04:50:53;;;;;;;28.70;18.45;;;;;;;0.66;82.89;100849.86;1781915;80;21016;-53
2020/12/11 04:53:21;;;;;;;32.15;18.60;;;;;;;0.67;82.82;100855.57;1783762;80;21362;-54
2020/12/11 04:55:49;;;;;;;35.30;19.90;;;;;;;0.66;82.60;100866.91;1755679;80;21009;-53
2020/12/11 04:58:16;;;;;;;28.30;15.83;;;;;;;0.61;82.19;100871.23;1755606;80;21025;-53
2020/12/11 05:00:43;;;;;;;26.85;17.25;;;;;;;0.56;82.24;100865.08;1783695;80;20978;-53
2020/12/11 05:05:47;;;;;;;35.87;23.00;;;;;;;0.62;82.40;100868.34;1867406;76;27867;-52
2020/12/11 05:08:19;;;;;;;26.75;16.97;;;;;;;0.65;82.24;100875.22;1851708;77;20994;-52
2020/12/11 05:10:47;;;;;;;33.50;18.42;;;;;;;0.69;82.17;100884.09;1851932;77;22089;-52
2020/12/11 05:13:24;;;;;;;35.38;19.98;;;;;;;0.66;81.86;100885.02;1851543;77;21004;-52
2020/12/11 05:16:13;;;;;;;29.70;18.00;;;;;;;0.64;81.97;100879.80;1851644;77;21049;-52
2020/12/11 05:18:41;;;;;;;29.70;19.45;;;;;;;0.65;81.92;100888.22;1851701;77;21540;-53
2020/12/11 05:21:26;;;;;;;33.30;18.85;;;;;;;0.59;81.57;100893.59;1851606;77;21013;-52
2020/12/11 05:24:02;;;;;;;30.12;18.37;;;;;;;0.50;81.46;100894.22;1851119;77;23595;-52
2020/12/11 05:26:33;;;;;;;35.52;21.57;;;;;;;0.44;81.53;100889.08;1851589;77;20930;-53
2020/12/11 05:29:01;;;;;;;35.88;19.87;;;;;;;0.40;81.60;100895.93;1851550;77;21575;-53
2020/12/11 05:31:28;;;;;;;32.75;20.08;;;;;;;0.39;81.48;100904.23;1851675;77;21029;-53
2020/12/11 05:34:13;;;;;;;35.60;21.35;;;;;;;0.34;81.33;100895.34;1851684;77;21044;-53
2020/12/11 05:36:48;;;;;;;37.00;21.90;;;;;;;0.27;81.33;100903.91;1851784;77;21858;-53
2020/12/11 05:39:27;;;;;;;35.35;17.70;;;;;;;0.24;80.93;100907.82;1851619;77;21450;-53
2020/12/11 05:41:54;;;;;;;35.10;20.35;;;;;;;0.15;80.83;100906.30;1846049;77;20946;-53
2020/12/11 05:44:27;;;;;;;31.27;20.12;;;;;;;0.13;80.97;100909.72;1826337;77;21014;-53
2020/12/11 05:46:55;;;;;;;31.17;18.90;;;;;;;0.11;80.86;100906.34;1818141;78;21614;-53
2020/12/11 05:49:28;;;;;;;37.73;21.50;;;;;;;0.08;80.88;100904.86;1818113;78;21168;-53
2020/12/11 05:52:12;;;;;;;34.30;19.73;;;;;;;0.08;81.00;100895.94;1818221;78;20989;-53
2020/12/11 05:54:48;;;;;;;30.37;19.20;;;;;;;0.09;80.81;100904.38;1818201;78;21021;-53
2020/12/11 05:57:17;;;;;;;32.90;18.75;;;;;;;0.03;80.53;100907.81;1817999;78;20970;-53
2020/12/11 05:59:44;;;;;;;29.20;17.87;;;;;;;-0.01;80.72;100909.56;1818324;78;21028;-53
2020/12/11 06:02:16;;;;;;;31.35;19.17;;;;;;;-0.02;80.74;100913.80;1818082;78;21135;-53
2020/12/11 06:04:45;;;;;;;34.53;19.90;;;;;;;0.00;80.79;100918.52;1817974;78;22007;-53
2020/12/11 06:07:14;;;;;;;38.48;20.72;;;;;;;-0.01;80.62;100921.71;1818237;78;20969;-53
2020/12/11 06:09:43;;;;;;;36.13;18.37;;;;;;;0.01;80.79;100916.12;1818044;78;21021;-53
2020/12/11 06:12:12;;;;;;;35.20;20.60;;;;;;;0.03;80.58;100919.97;1818171;78;21004;-53
2020/12/11 06:15:12;;;;;;;30.08;18.60;;;;;;;0.04;80.63;100925.70;1818128;78;20981;-53
2020/12/11 06:17:46;;;;;;;32.17;20.92;;;;;;;0.03;80.55;100916.78;1817621;79;20966;-53
2020/12/11 06:20:16;;;;;;;29.95;17.25;;;;;;;0.03;80.49;100919.97;1817126;79;21614;-53
2020/12/11 06:22:46;;;;;;;28.80;19.15;;;;;;;-0.01;80.10;100924.41;1817737;79;21540;-53
2020/12/11 06:25:28;;;;;;;33.13;18.10;;;;;;;-0.02;80.19;100920.03;1817192;79;20994;-53
2020/12/11 06:27:59;;;;;;;25.95;17.75;;;;;;;-0.01;80.29;100924.41;1817685;79;22266;-53
2020/12/11 06:30:30;;;;;;;30.25;18.60;;;;;;;-0.04;79.94;100914.00;1817302;79;20985;-53
2020/12/11 06:32:59;;;;;;;37.45;20.50;;;;;;;-0.01;80.25;100920.36;1817530;79;20962;-53
2020/12/11 06:35:27;;;;;;;37.98;20.15;;;;;;;0.02;79.96;100917.80;1817400;79;21061;-53
2020/12/11 06:37:55;;;;;;;34.00;21.62;;;;;;;0.02;79.84;100918.32;1817476;78;21029;-53
2020/12/11 06:40:43;;;;;;;39.83;24.72;;;;;;;0.02;79.65;100919.67;1817592;79;21331;-53
2020/12/11 06:43:44;;;;;;;30.97;20.77;;;;;;;0.08;79.75;100916.20;1835402;76;28259;-52
2020/12/11 06:46:21;;;;;;;36.03;20.10;;;;;;;-0.01;79.65;100920.36;1784635;80;21029;-52
2020/12/11 06:49:19;;;;;;;29.35;17.07;;;;;;;-0.04;79.31;100922.63;1784533;80;21072;-53
2020/12/11 06:51:53;;;;;;;33.23;20.48;;;;;;;-0.09;79.32;100917.77;1784574;79;21029;-53
2020/12/11 06:54:29;;;;;;;33.50;19.57;;;;;;;-0.13;79.36;100917.00;1784415;80;21034;-53
2020/12/11 06:56:59;;;;;;;35.85;20.27;;;;;;;-0.16;79.29;100914.16;1784725;80;21454;-53
2020/12/11 06:59:36;;;;;;;29.92;19.25;;;;;;;-0.14;79.38;100910.77;1784410;80;21041;-53
2020/12/11 07:02:15;;;;;;;32.30;17.02;;;;;;;-0.15;78.97;100917.19;1756098;80;21250;-53
2020/12/11 07:04:44;;;;;;;34.78;19.10;;;;;;;-0.18;79.07;100918.93;1784507;80;21006;-53
2020/12/11 07:07:12;;;;;;;30.77;18.32;;;;;;;-0.24;78.86;100911.08;1784550;79;21038;-53
2020/12/11 07:09:46;;;;;;;27.15;17.02;;;;;;;-0.29;78.86;100914.84;1784747;80;21631;-53
2020/12/11 07:12:16;;;;;;;30.65;18.65;;;;;;;-0.36;78.19;100899.94;1784459;80;21623;-53
2020/12/11 07:14:47;;;;;;;33.48;19.90;;;;;;;-0.40;78.48;100901.84;1784534;80;21375;-53
2020/12/11 07:17:26;;;;;;;31.55;20.97;;;;;;;-0.40;78.31;100904.53;1784462;80;21006;-53
2020/12/11 07:19:54;;;;;;;29.70;19.20;;;;;;;-0.43;78.19;100894.98;1754421;80;21037;-53
2020/12/11 07:22:22;;;;;;;30.72;19.40;;;;;;;-0.43;78.23;100904.42;1784586;80;21010;-53
2020/12/11 07:24:49;;;;;;;31.35;19.50;;;;;;;-0.48;77.94;100900.63;1784633;80;20969;-53
2020/12/11 07:27:16;;;;;;;33.60;19.85;;;;;;;-0.47;78.27;100895.03;1784559;79;21013;-53
2020/12/11 07:29:50;;;;;;;30.92;19.12;;;;;;;-0.42;78.26;100895.28;1784510;80;21432;-54
2020/12/11 07:32:19;;;;;;;28.92;17.77;;;;;;;-0.39;78.48;100890.84;1784467;79;20966;-54
2020/12/11 07:34:47;;;;;;;32.33;19.80;;;;;;;-0.36;78.27;100893.20;1784651;80;20986;-55
2020/12/11 07:37:15;;;;;;;31.57;19.45;;;;;;;-0.33;78.36;100893.83;1784367;80;20973;-53
2020/12/11 07:39:42;;;;;;;31.02;19.62;;;;;;;-0.39;78.10;100894.89;1784638;79;21040;-54
2020/12/11 07:42:10;;;;;;;30.70;18.42;;;;;;;-0.41;78.47;100890.22;1784319;78;21164;-54
2020/12/11 07:44:39;;;;;;;30.90;18.80;;;;;;;-0.37;78.50;100890.69;1784441;79;20965;-53
2020/12/11 07:47:11;;;;;;;35.17;20.97;;;;;;;-0.33;78.26;100897.87;1784333;80;20993;-53
2020/12/11 07:49:46;;;;;;;33.53;17.57;;;;;;;-0.37;77.96;100891.52;1750743;80;21074;-54
2020/12/11 07:52:22;;;;;;;32.53;19.80;;;;;;;-0.39;77.05;100896.77;1743423;81;21360;-54
2020/12/11 07:54:44;;;;;;;44.05;20.20;;;;;;;-0.50;77.15;100899.46;1730633;82;21070;-54
2020/12/11 07:57:17;;;;;;;33.15;18.32;;;;;;;-0.56;77.22;100907.80;1757370;81;21020;-54
2020/12/11 08:00:02;;;;;;;44.55;19.77;;;;;;;-0.59;77.17;100901.92;1757681;81;22152;-55
2020/12/11 08:02:33;;;;;;;39.33;19.92;;;;;;;-0.61;77.51;100900.77;1757575;81;21000;-53
2020/12/11 08:05:07;;;;;;;31.77;19.52;;;;;;;-0.56;77.74;100891.61;1763025;80;21384;-52
2020/12/11 08:07:35;;;;;;;42.17;22.20;;;;;;;-0.56;77.35;100890.25;1754792;80;21072;-51
2020/12/11 08:10:12;;;;;;;45.23;22.62;;;;;;;-0.60;77.35;100898.89;1779285;80;21057;-53
2020/12/11 08:12:40;;;;;;;59.35;29.80;;;;;;;-0.58;77.57;100903.08;1783026;79;21343;-52
2020/12/11 08:15:07;;;;;;;35.60;20.27;;;;;;;-0.52;77.61;100896.09;1779169;79;21024;-52
2020/12/11 08:17:36;;;;;;;33.92;21.77;;;;;;;-0.54;77.00;100903.03;1779144;80;21249;-52
2020/12/11 08:20:06;;;;;;;41.70;22.85;;;;;;;-0.58;77.26;100892.81;1777592;79;21030;-52
2020/12/11 08:22:36;;;;;;;49.35;27.20;;;;;;;-0.56;77.62;100896.14;1778058;79;21319;-52
2020/12/11 08:25:24;;;;;;;39.90;25.10;;;;;;;-0.54;77.60;100894.94;1744155;80;21046;-52
2020/12/11 08:27:51;;;;;;;33.88;20.02;;;;;;;-0.51;77.59;100892.38;1711820;81;21642;-52
2020/12/11 08:30:20;;;;;;;37.38;21.52;;;;;;;-0.53;77.44;100882.27;1731748;81;21205;-53
2020/12/11 08:32:52;;;;;;;32.13;21.12;;;;;;;-0.53;77.33;100886.31;1705000;81;21082;-53
2020/12/11 08:35:24;;;;;;;32.10;19.50;;;;;;;-0.52;77.39;100888.83;1731089;81;21068;-54
2020/12/11 08:37:58;;;;;;;37.75;23.10;;;;;;;-0.53;77.17;100879.57;1773974;79;21045;-53
2020/12/11 08:40:26;;;;;;;34.18;20.55;;;;;;;-0.58;77.18;100877.45;1773957;79;21170;-52
2020/12/11 08:45:56;;;;;;;32.67;20.62;;;;;;;-0.56;77.58;100877.26;1776442;80;21011;-52
2020/12/11 08:51:07;;;;;;;42.27;23.98;;;;;;;-0.44;77.83;100886.55;1851007;76;28284;-52
2020/12/11 08:53:36;;;;;;;46.65;25.82;;;;;;;-0.48;77.52;100875.80;1822699;76;21660;-52
2020/12/11 08:56:09;;;;;;;39.65;22.95;;;;;;;-0.49;77.24;100875.47;1825473;77;21041;-52
2020/12/11 08:58:36;;;;;;;38.63;23.27;;;;;;;-0.47;77.45;100876.14;1825131;77;21005;-53
2020/12/11 09:01:05;;;;;;;34.50;20.00;;;;;;;-0.47;77.34;100876.63;1824150;77;21030;-53
2020/12/11 09:03:33;;;;;;;74.27;34.48;;;;;;;-0.43;77.29;100869.34;1827924;77;20963;-53
2020/12/11 09:06:00;;;;;;;45.73;24.60;;;;;;;-0.35;77.56;100875.13;1829081;76;20995;-52
2020/12/11 09:08:28;;;;;;;40.33;20.90;;;;;;;-0.17;77.55;100872.01;1823994;76;22140;-52
2020/12/11 09:10:56;;;;;;;47.75;26.37;;;;;;;0.16;77.25;100878.25;1822353;76;22460;-52
2020/12/11 09:13:23;;;;;;;40.60;24.05;;;;;;;0.58;76.35;100872.46;1824339;77;21130;-54
2020/12/11 09:15:51;;;;;;;37.93;23.00;;;;;;;1.08;75.29;100879.14;1823864;76;22318;-54
2020/12/11 09:18:18;;;;;;;34.83;22.55;;;;;;;1.46;73.54;100867.02;1832731;77;21032;-54
2020/12/11 09:20:48;;;;;;;35.38;20.40;;;;;;;1.49;72.02;100865.29;1829576;76;21042;-54
2020/12/11 09:23:15;;;;;;;39.42;23.85;;;;;;;1.30;70.76;100866.36;1829343;77;21068;-53
2020/12/11 09:25:43;;;;;;;42.05;22.15;;;;;;;1.10;71.17;100868.11;1827729;77;21628;-54
2020/12/11 09:30:48;;;;;;;28.02;18.92;;;;;;;0.77;71.27;100852.02;1857289;75;22172;-52
2020/12/11 09:33:22;;;;;;;31.02;18.73;;;;;;;0.48;71.74;100859.28;1832912;76;20943;-52
2020/12/11 09:35:49;;;;;;;33.75;21.33;;;;;;;0.25;71.96;100855.98;1826486;77;21323;-53
2020/12/11 09:38:16;;;;;;;33.05;18.90;;;;;;;0.06;72.68;100856.97;1824730;76;20990;-54
2020/12/11 09:45:49;;;;;;;32.85;20.05;;;;;;;-0.24;73.49;100851.68;1803334;78;20974;-52
2020/12/11 09:48:20;;;;;;;33.10;20.60;;;;;;;-0.38;73.65;100852.56;1802921;78;21148;-52
2020/12/11 09:56:08;;;;;;;39.63;24.98;;;;;;;-0.43;75.12;100833.39;1809675;78;20953;-53
2020/12/11 09:58:40;;;;;;;39.35;22.90;;;;;;;-0.46;75.46;100848.09;1798019;78;20935;-51
2020/12/11 10:01:07;;;;;;;34.40;21.25;;;;;;;-0.51;75.38;100839.76;1807991;78;21566;-52
2020/12/11 10:03:38;;;;;;;31.90;20.08;;;;;;;-0.56;75.39;100837.64;1803446;78;21058;-52
2020/12/11 10:06:08;;;;;;;36.90;22.52;;;;;;;-0.59;75.90;100832.59;1793584;78;20996;-51
2020/12/11 10:08:33;;;;;;;33.85;20.00;;;;;;;-0.55;76.28;100829.02;1807967;78;21563;-53
2020/12/11 10:11:01;;;;;;;39.20;21.12;;;;;;;-0.49;76.30;100830.12;1803752;78;20973;-52
2020/12/11 10:13:29;;;;;;;31.77;18.87;;;;;;;-0.48;76.16;100835.84;1795393;78;21197;-51
2020/12/11 10:15:58;;;;;;;31.37;19.10;;;;;;;-0.46;76.25;100829.20;1801620;78;21017;-52
2020/12/11 10:18:25;;;;;;;31.77;20.62;;;;;;;-0.45;76.09;100809.83;1801238;78;20950;-53
2020/12/11 10:20:53;;;;;;;33.20;19.15;;;;;;;-0.44;75.99;100811.50;1804636;78;21436;-52
2020/12/11 10:23:20;;;;;;;38.85;22.58;;;;;;;-0.39;75.75;100803.65;1793032;78;20989;-51
2020/12/11 10:25:49;;;;;;;30.02;19.17;;;;;;;-0.39;75.35;100807.17;1801500;78;21186;-53
2020/12/11 10:28:17;;;;;;;30.68;19.20;;;;;;;-0.42;74.59;100802.69;1800096;78;21667;-51
2020/12/11 10:30:45;;;;;;;30.60;20.30;;;;;;;-0.48;74.73;100804.81;1801823;78;20978;-53
2020/12/11 10:33:12;;;;;;;35.33;21.27;;;;;;;-0.44;74.97;100812.33;1804842;78;20985;-53
2020/12/11 10:35:39;;;;;;;42.85;25.32;;;;;;;-0.41;74.53;100814.64;1797139;78;20924;-53
2020/12/11 10:38:07;;;;;;;35.63;21.05;;;;;;;-0.33;74.96;100827.69;1811870;78;21186;-53
2020/12/11 10:40:34;;;;;;;36.95;21.60;;;;;;;-0.24;74.57;100817.93;1797448;78;21506;-53
2020/12/11 10:43:01;;;;;;;32.63;19.67;;;;;;;-0.18;74.56;100812.28;1806103;78;20997;-53
2020/12/11 10:45:29;;;;;;;33.33;20.40;;;;;;;-0.12;74.28;100810.14;1808679;78;20981;-53
2020/12/11 10:48:00;;;;;;;40.30;24.02;;;;;;;-0.24;73.67;100810.36;1799306;78;21623;-54
2020/12/11 10:50:27;;;;;;;43.23;23.67;;;;;;;-0.38;74.36;100812.90;1810120;78;21461;-53
2020/12/11 10:52:55;;;;;;;36.83;21.12;;;;;;;-0.47;74.73;100804.62;1796230;78;21010;-52
2020/12/11 10:55:23;;;;;;;32.35;20.90;;;;;;;-0.50;75.33;100810.90;1808856;78;20984;-53
2020/12/11 10:57:50;;;;;;;39.45;23.07;;;;;;;-0.50;75.51;100802.80;1804530;78;21044;-53
2020/12/11 11:00:17;;;;;;;49.23;22.77;;;;;;;-0.51;76.02;100804.67;1767849;78;21394;-52
2020/12/11 11:02:48;;;;;;;38.50;21.87;;;;;;;-0.49;76.22;100803.95;1809969;78;21270;-53
2020/12/11 11:05:18;;;;;;;41.65;22.85;;;;;;;-0.54;75.84;100809.94;1802337;78;20949;-53
2020/12/11 11:07:47;;;;;;;39.80;21.42;;;;;;;-0.60;75.90;100811.20;1805358;78;20961;-54
2020/12/11 11:10:21;;;;;;;44.08;23.92;;;;;;;-0.60;76.35;100807.16;1801668;78;20990;-53
2020/12/11 11:12:56;;;;;;;35.88;21.05;;;;;;;-0.64;75.82;100812.60;1810825;78;20965;-53
2020/12/11 11:15:40;;;;;;;36.73;23.25;;;;;;;-0.63;76.17;100807.54;1803974;78;22258;-54
2020/12/11 11:23:22;;;;;;;43.45;24.37;;;;;;;-0.61;76.76;100799.58;1812872;78;20962;-53
2020/12/11 11:28:13;;;;;;;56.50;26.77;;;;;;;-0.57;76.71;100794.66;1797833;78;21185;-52
2020/12/11 11:30:41;;;;;;;56.10;23.98;;;;;;;-0.56;76.64;100801.70;1794881;78;21654;-52
2020/12/11 11:33:10;;;;;;;39.33;19.73;;;;;;;-0.58;76.38;100794.33;1780559;79;21118;-53
2020/12/11 11:35:38;;;;;;;53.23;25.85;;;;;;;-0.62;75.89;100795.73;1789885;79;21006;-55
2020/12/11 11:38:09;;;;;;;44.48;22.85;;;;;;;-0.74;75.99;100798.91;1774231;79;21642;-55
2020/12/11 11:40:38;;;;;;;58.10;29.35;;;;;;;-0.81;75.92;100795.31;1793389;79;21387;-54
2020/12/11 11:43:06;;;;;;;52.20;26.27;;;;;;;-0.83;76.41;100793.30;1774600;79;20969;-55
2020/12/11 11:45:38;;;;;;;41.73;22.42;;;;;;;-0.81;76.57;100796.66;1785288;79;21909;-53
2020/12/11 11:48:09;;;;;;;53.95;26.25;;;;;;;-0.82;76.57;100788.76;1785444;79;21050;-54
2020/12/11 11:50:43;;;;;;;53.87;27.48;;;;;;;-0.83;76.38;100785.72;1782317;79;20993;-55
2020/12/11 11:53:13;;;;;;;54.23;25.88;;;;;;;-0.85;76.83;100785.09;1791615;79;21334;-54
2020/12/11 11:55:35;;;;;;;59.03;24.92;;;;;;;-0.86;76.76;100782.89;1793229;79;21662;-54